Avon Downs, Australia
Current Conditions -  °F | °C
As of 11:00 AM on Friday 21 Nov 2014 (Local Time) from YBMA Reporting Station
Scattered Clouds Scattered Clouds  
Wind Chill: 108°   Ceiling: Unl
Heat Index: 108°   Visibility: 6mi
Dew Point: 57°   Wind: 15mph
Humidity: 19%   Direction: 350°N
Pressure: 29.83"   Gusts: NA
Location:  20.02°S, 137.67°E
Report Text: YBMA 210200Z AUTO 35013KT 9999 // SCT095 42/14 Q1010
Loading
Personal Weather Stations






























Interactive Weather Map New forecast layout! Learn more

10-Day Weather Forecast

Advertisements
Track Severe Weather on mobile